sensor_id;sensor_type;location;lat;lon;timestamp;P1;durP1;ratioP1;P2;durP2;ratioP2
769;SDS011;368;48.698;9.116;2023-08-24T00:01:21;7.70;;;7.10;;
769;SDS011;368;48.698;9.116;2023-08-24T00:03:48;8.47;;;7.80;;
769;SDS011;368;48.698;9.116;2023-08-24T00:06:15;9.33;;;8.43;;
769;SDS011;368;48.698;9.116;2023-08-24T00:08:42;9.73;;;8.67;;
769;SDS011;368;48.698;9.116;2023-08-24T00:11:10;8.80;;;8.07;;
769;SDS011;368;48.698;9.116;2023-08-24T00:13:41;8.60;;;7.80;;
769;SDS011;368;48.698;9.116;2023-08-24T00:16:13;9.00;;;8.20;;
769;SDS011;368;48.698;9.116;2023-08-24T00:18:40;9.17;;;8.30;;
769;SDS011;368;48.698;9.116;2023-08-24T00:21:07;9.17;;;8.27;;
769;SDS011;368;48.698;9.116;2023-08-24T00:23:34;8.73;;;7.93;;
769;SDS011;368;48.698;9.116;2023-08-24T00:26:01;9.37;;;8.07;;
769;SDS011;368;48.698;9.116;2023-08-24T00:28:28;9.10;;;8.40;;
769;SDS011;368;48.698;9.116;2023-08-24T00:30:56;8.30;;;7.70;;
769;SDS011;368;48.698;9.116;2023-08-24T00:33:23;8.70;;;7.90;;
769;SDS011;368;48.698;9.116;2023-08-24T00:35:50;8.70;;;7.90;;
769;SDS011;368;48.698;9.116;2023-08-24T00:38:17;9.30;;;8.50;;
769;SDS011;368;48.698;9.116;2023-08-24T00:40:44;8.90;;;8.13;;
769;SDS011;368;48.698;9.116;2023-08-24T00:43:11;9.30;;;8.50;;
769;SDS011;368;48.698;9.116;2023-08-24T00:45:39;8.90;;;8.20;;
769;SDS011;368;48.698;9.116;2023-08-24T00:48:11;9.40;;;8.57;;
769;SDS011;368;48.698;9.116;2023-08-24T00:50:42;9.53;;;8.77;;
769;SDS011;368;48.698;9.116;2023-08-24T00:53:10;8.60;;;8.00;;
769;SDS011;368;48.698;9.116;2023-08-24T00:55:37;10.23;;;9.33;;
769;SDS011;368;48.698;9.116;2023-08-24T00:58:04;8.83;;;7.97;;
769;SDS011;368;48.698;9.116;2023-08-24T01:00:32;9.77;;;8.73;;
769;SDS011;368;48.698;9.116;2023-08-24T01:02:59;8.57;;;7.93;;
769;SDS011;368;48.698;9.116;2023-08-24T01:05:28;8.93;;;7.67;;
769;SDS011;368;48.698;9.116;2023-08-24T01:07:55;9.00;;;8.30;;
769;SDS011;368;48.698;9.116;2023-08-24T01:10:22;8.97;;;8.30;;
769;SDS011;368;48.698;9.116;2023-08-24T01:12:52;9.20;;;8.40;;
769;SDS011;368;48.698;9.116;2023-08-24T01:15:29;10.00;;;9.00;;
769;SDS011;368;48.698;9.116;2023-08-24T01:18:04;8.90;;;8.10;;
769;SDS011;368;48.698;9.116;2023-08-24T01:20:34;9.17;;;8.23;;
769;SDS011;368;48.698;9.116;2023-08-24T01:23:04;9.50;;;8.77;;
769;SDS011;368;48.698;9.116;2023-08-24T01:25:38;8.70;;;8.00;;
769;SDS011;368;48.698;9.116;2023-08-24T01:28:10;9.43;;;8.53;;
769;SDS011;368;48.698;9.116;2023-08-24T01:30:39;9.00;;;8.40;;
769;SDS011;368;48.698;9.116;2023-08-24T01:33:06;9.67;;;8.87;;
769;SDS011;368;48.698;9.116;2023-08-24T01:35:36;8.53;;;7.63;;
769;SDS011;368;48.698;9.116;2023-08-24T01:38:03;10.03;;;8.43;;
769;SDS011;368;48.698;9.116;2023-08-24T01:40:33;8.63;;;8.03;;
769;SDS011;368;48.698;9.116;2023-08-24T01:43:13;9.23;;;8.33;;
769;SDS011;368;48.698;9.116;2023-08-24T01:45:41;9.80;;;9.10;;
769;SDS011;368;48.698;9.116;2023-08-24T01:48:10;9.50;;;8.80;;
769;SDS011;368;48.698;9.116;2023-08-24T01:50:38;10.10;;;9.20;;
769;SDS011;368;48.698;9.116;2023-08-24T01:53:06;8.80;;;8.10;;
769;SDS011;368;48.698;9.116;2023-08-24T01:55:33;9.63;;;8.93;;
769;SDS011;368;48.698;9.116;2023-08-24T01:58:00;9.77;;;8.60;;
769;SDS011;368;48.698;9.116;2023-08-24T02:00:27;10.00;;;9.00;;
769;SDS011;368;48.698;9.116;2023-08-24T02:02:55;8.77;;;8.07;;
769;SDS011;368;48.698;9.116;2023-08-24T02:05:22;9.03;;;8.20;;
769;SDS011;368;48.698;9.116;2023-08-24T02:07:52;10.57;;;9.57;;
769;SDS011;368;48.698;9.116;2023-08-24T02:10:19;9.37;;;8.60;;
769;SDS011;368;48.698;9.116;2023-08-24T02:12:46;9.40;;;8.70;;
769;SDS011;368;48.698;9.116;2023-08-24T02:15:13;9.70;;;8.87;;
769;SDS011;368;48.698;9.116;2023-08-24T02:17:42;9.73;;;8.93;;
769;SDS011;368;48.698;9.116;2023-08-24T02:20:10;9.70;;;9.00;;
769;SDS011;368;48.698;9.116;2023-08-24T02:22:37;11.53;;;9.50;;
769;SDS011;368;48.698;9.116;2023-08-24T02:25:05;9.97;;;9.27;;
769;SDS011;368;48.698;9.116;2023-08-24T02:27:32;9.97;;;9.10;;
769;SDS011;368;48.698;9.116;2023-08-24T02:29:59;9.53;;;8.63;;
769;SDS011;368;48.698;9.116;2023-08-24T02:32:27;10.00;;;9.23;;
769;SDS011;368;48.698;9.116;2023-08-24T02:34:55;9.30;;;8.40;;
769;SDS011;368;48.698;9.116;2023-08-24T02:37:22;9.80;;;8.93;;
769;SDS011;368;48.698;9.116;2023-08-24T02:39:49;10.50;;;9.70;;
769;SDS011;368;48.698;9.116;2023-08-24T02:42:16;9.60;;;8.83;;
769;SDS011;368;48.698;9.116;2023-08-24T02:44:43;9.73;;;9.00;;
769;SDS011;368;48.698;9.116;2023-08-24T02:47:09;9.93;;;9.20;;
769;SDS011;368;48.698;9.116;2023-08-24T02:49:40;8.23;;;7.63;;
769;SDS011;368;48.698;9.116;2023-08-24T02:52:09;8.77;;;8.07;;
769;SDS011;368;48.698;9.116;2023-08-24T02:54:38;9.10;;;8.40;;
769;SDS011;368;48.698;9.116;2023-08-24T02:57:05;8.70;;;8.00;;
769;SDS011;368;48.698;9.116;2023-08-24T02:59:32;8.87;;;8.17;;
769;SDS011;368;48.698;9.116;2023-08-24T03:01:59;9.97;;;9.10;;
769;SDS011;368;48.698;9.116;2023-08-24T03:04:26;8.87;;;8.20;;
769;SDS011;368;48.698;9.116;2023-08-24T03:06:53;9.10;;;8.40;;
769;SDS011;368;48.698;9.116;2023-08-24T03:09:21;8.93;;;8.13;;
769;SDS011;368;48.698;9.116;2023-08-24T03:11:48;8.87;;;8.20;;
769;SDS011;368;48.698;9.116;2023-08-24T03:14:15;9.60;;;8.80;;
769;SDS011;368;48.698;9.116;2023-08-24T03:16:43;9.17;;;8.47;;
769;SDS011;368;48.698;9.116;2023-08-24T03:19:10;10.47;;;9.63;;
769;SDS011;368;48.698;9.116;2023-08-24T03:21:39;10.77;;;9.87;;
769;SDS011;368;48.698;9.116;2023-08-24T03:24:07;9.07;;;8.43;;
769;SDS011;368;48.698;9.116;2023-08-24T03:26:35;10.00;;;8.47;;
769;SDS011;368;48.698;9.116;2023-08-24T03:29:02;10.10;;;9.20;;
769;SDS011;368;48.698;9.116;2023-08-24T03:31:29;9.70;;;9.00;;
769;SDS011;368;48.698;9.116;2023-08-24T03:33:56;9.23;;;8.40;;
769;SDS011;368;48.698;9.116;2023-08-24T03:36:23;9.87;;;8.87;;
769;SDS011;368;48.698;9.116;2023-08-24T03:38:50;10.43;;;9.53;;
769;SDS011;368;48.698;9.116;2023-08-24T03:41:17;10.47;;;9.60;;
769;SDS011;368;48.698;9.116;2023-08-24T03:43:46;9.13;;;8.43;;
769;SDS011;368;48.698;9.116;2023-08-24T03:46:13;10.10;;;9.20;;
769;SDS011;368;48.698;9.116;2023-08-24T03:48:40;10.30;;;9.27;;
769;SDS011;368;48.698;9.116;2023-08-24T03:51:07;10.20;;;9.40;;
769;SDS011;368;48.698;9.116;2023-08-24T03:53:34;10.53;;;9.60;;
769;SDS011;368;48.698;9.116;2023-08-24T03:56:00;11.10;;;10.20;;
769;SDS011;368;48.698;9.116;2023-08-24T03:58:27;10.90;;;10.00;;
769;SDS011;368;48.698;9.116;2023-08-24T04:00:56;9.77;;;9.07;;
769;SDS011;368;48.698;9.116;2023-08-24T04:03:23;9.53;;;8.63;;
769;SDS011;368;48.698;9.116;2023-08-24T04:05:50;9.13;;;8.23;;
769;SDS011;368;48.698;9.116;2023-08-24T04:08:17;8.37;;;7.77;;
769;SDS011;368;48.698;9.116;2023-08-24T04:10:44;10.77;;;9.83;;
769;SDS011;368;48.698;9.116;2023-08-24T04:13:11;10.40;;;9.50;;
769;SDS011;368;48.698;9.116;2023-08-24T04:15:38;10.00;;;9.10;;
769;SDS011;368;48.698;9.116;2023-08-24T04:18:06;9.13;;;8.43;;
769;SDS011;368;48.698;9.116;2023-08-24T04:20:35;9.13;;;8.33;;
769;SDS011;368;48.698;9.116;2023-08-24T04:23:02;9.90;;;9.00;;
769;SDS011;368;48.698;9.116;2023-08-24T04:25:30;9.90;;;9.00;;
769;SDS011;368;48.698;9.116;2023-08-24T04:27:57;9.50;;;8.80;;
769;SDS011;368;48.698;9.116;2023-08-24T04:30:24;10.67;;;8.30;;
769;SDS011;368;48.698;9.116;2023-08-24T04:32:51;9.40;;;8.70;;
769;SDS011;368;48.698;9.116;2023-08-24T04:35:20;9.60;;;8.70;;
769;SDS011;368;48.698;9.116;2023-08-24T04:37:47;9.77;;;8.93;;
769;SDS011;368;48.698;9.116;2023-08-24T04:40:14;10.07;;;9.37;;
769;SDS011;368;48.698;9.116;2023-08-24T04:42:41;9.67;;;8.77;;
769;SDS011;368;48.698;9.116;2023-08-24T04:45:08;9.97;;;9.17;;
769;SDS011;368;48.698;9.116;2023-08-24T04:47:37;13.47;;;12.27;;
769;SDS011;368;48.698;9.116;2023-08-24T04:50:04;13.57;;;12.47;;
769;SDS011;368;48.698;9.116;2023-08-24T04:52:33;12.50;;;11.47;;
769;SDS011;368;48.698;9.116;2023-08-24T04:55:01;9.70;;;8.80;;
769;SDS011;368;48.698;9.116;2023-08-24T04:57:28;9.90;;;9.10;;
769;SDS011;368;48.698;9.116;2023-08-24T04:59:56;10.97;;;10.07;;
769;SDS011;368;48.698;9.116;2023-08-24T05:02:23;12.10;;;11.10;;
769;SDS011;368;48.698;9.116;2023-08-24T05:04:50;12.77;;;11.17;;
769;SDS011;368;48.698;9.116;2023-08-24T05:07:17;10.60;;;9.60;;
769;SDS011;368;48.698;9.116;2023-08-24T05:09:45;11.70;;;10.80;;
769;SDS011;368;48.698;9.116;2023-08-24T05:12:12;13.43;;;12.33;;
769;SDS011;368;48.698;9.116;2023-08-24T05:14:39;12.73;;;11.73;;
769;SDS011;368;48.698;9.116;2023-08-24T05:17:10;12.67;;;11.27;;
769;SDS011;368;48.698;9.116;2023-08-24T05:19:40;10.83;;;9.00;;
769;SDS011;368;48.698;9.116;2023-08-24T05:22:07;8.47;;;7.87;;
769;SDS011;368;48.698;9.116;2023-08-24T05:24:34;8.80;;;8.10;;
769;SDS011;368;48.698;9.116;2023-08-24T05:27:02;10.27;;;9.03;;
769;SDS011;368;48.698;9.116;2023-08-24T05:29:29;9.73;;;8.60;;
769;SDS011;368;48.698;9.116;2023-08-24T05:31:56;9.17;;;8.40;;
769;SDS011;368;48.698;9.116;2023-08-24T05:34:23;8.50;;;7.80;;
769;SDS011;368;48.698;9.116;2023-08-24T05:36:50;9.03;;;8.33;;
769;SDS011;368;48.698;9.116;2023-08-24T05:39:17;9.10;;;8.40;;
769;SDS011;368;48.698;9.116;2023-08-24T05:41:44;9.40;;;8.60;;
769;SDS011;368;48.698;9.116;2023-08-24T05:44:13;8.80;;;8.10;;
769;SDS011;368;48.698;9.116;2023-08-24T05:46:41;9.27;;;7.97;;
769;SDS011;368;48.698;9.116;2023-08-24T05:49:11;9.63;;;8.87;;
769;SDS011;368;48.698;9.116;2023-08-24T05:51:41;9.53;;;8.63;;
769;SDS011;368;48.698;9.116;2023-08-24T05:54:08;8.40;;;7.80;;
769;SDS011;368;48.698;9.116;2023-08-24T05:56:38;10.30;;;9.40;;
769;SDS011;368;48.698;9.116;2023-08-24T05:59:08;11.63;;;10.60;;
769;SDS011;368;48.698;9.116;2023-08-24T06:01:36;9.87;;;8.97;;
769;SDS011;368;48.698;9.116;2023-08-24T06:04:07;9.03;;;8.23;;
769;SDS011;368;48.698;9.116;2023-08-24T06:06:34;9.93;;;8.67;;
769;SDS011;368;48.698;9.116;2023-08-24T06:09:02;8.63;;;8.03;;
769;SDS011;368;48.698;9.116;2023-08-24T06:11:30;9.43;;;8.50;;
769;SDS011;368;48.698;9.116;2023-08-24T06:13:58;8.50;;;7.77;;
769;SDS011;368;48.698;9.116;2023-08-24T06:16:25;7.77;;;7.07;;
769;SDS011;368;48.698;9.116;2023-08-24T06:18:53;8.60;;;7.80;;
769;SDS011;368;48.698;9.116;2023-08-24T06:21:20;8.63;;;7.80;;
769;SDS011;368;48.698;9.116;2023-08-24T06:23:47;8.70;;;7.80;;
769;SDS011;368;48.698;9.116;2023-08-24T06:26:14;8.83;;;7.93;;
769;SDS011;368;48.698;9.116;2023-08-24T06:28:41;9.03;;;8.10;;
769;SDS011;368;48.698;9.116;2023-08-24T06:31:08;8.90;;;8.10;;
769;SDS011;368;48.698;9.116;2023-08-24T06:33:35;10.40;;;9.40;;
769;SDS011;368;48.698;9.116;2023-08-24T06:36:04;10.27;;;9.37;;
769;SDS011;368;48.698;9.116;2023-08-24T06:38:32;9.27;;;8.37;;
769;SDS011;368;48.698;9.116;2023-08-24T06:41:00;11.57;;;9.93;;
769;SDS011;368;48.698;9.116;2023-08-24T06:43:27;8.13;;;7.53;;
769;SDS011;368;48.698;9.116;2023-08-24T06:45:54;9.40;;;8.50;;
769;SDS011;368;48.698;9.116;2023-08-24T06:48:24;8.10;;;7.40;;
769;SDS011;368;48.698;9.116;2023-08-24T06:50:54;7.40;;;6.90;;
769;SDS011;368;48.698;9.116;2023-08-24T06:53:22;7.80;;;7.13;;
769;SDS011;368;48.698;9.116;2023-08-24T06:55:53;8.20;;;7.60;;
769;SDS011;368;48.698;9.116;2023-08-24T06:58:20;7.60;;;6.90;;
769;SDS011;368;48.698;9.116;2023-08-24T07:00:47;7.60;;;7.00;;
769;SDS011;368;48.698;9.116;2023-08-24T07:03:15;7.80;;;7.10;;
769;SDS011;368;48.698;9.116;2023-08-24T07:05:43;7.90;;;7.20;;
769;SDS011;368;48.698;9.116;2023-08-24T07:08:10;7.83;;;7.13;;
769;SDS011;368;48.698;9.116;2023-08-24T07:10:38;7.80;;;7.00;;
769;SDS011;368;48.698;9.116;2023-08-24T07:13:06;11.33;;;7.50;;
769;SDS011;368;48.698;9.116;2023-08-24T07:15:34;7.90;;;7.10;;
769;SDS011;368;48.698;9.116;2023-08-24T07:18:01;8.77;;;7.77;;
769;SDS011;368;48.698;9.116;2023-08-24T07:20:30;7.70;;;7.10;;
769;SDS011;368;48.698;9.116;2023-08-24T07:22:58;8.63;;;7.17;;
769;SDS011;368;48.698;9.116;2023-08-24T07:25:25;8.90;;;6.33;;
769;SDS011;368;48.698;9.116;2023-08-24T07:27:54;8.33;;;6.77;;
769;SDS011;368;48.698;9.116;2023-08-24T07:30:23;7.03;;;6.17;;
769;SDS011;368;48.698;9.116;2023-08-24T07:32:51;8.50;;;6.90;;
769;SDS011;368;48.698;9.116;2023-08-24T07:35:18;6.80;;;6.30;;
769;SDS011;368;48.698;9.116;2023-08-24T07:37:45;6.07;;;5.57;;
769;SDS011;368;48.698;9.116;2023-08-24T07:40:13;6.77;;;6.20;;
769;SDS011;368;48.698;9.116;2023-08-24T07:42:44;8.33;;;5.87;;
769;SDS011;368;48.698;9.116;2023-08-24T07:45:13;7.07;;;6.37;;
769;SDS011;368;48.698;9.116;2023-08-24T07:47:40;6.67;;;6.00;;
769;SDS011;368;48.698;9.116;2023-08-24T07:50:07;6.53;;;6.03;;
769;SDS011;368;48.698;9.116;2023-08-24T07:55:02;9.50;;;6.00;;
769;SDS011;368;48.698;9.116;2023-08-24T07:57:30;5.90;;;5.40;;
769;SDS011;368;48.698;9.116;2023-08-24T07:59:58;6.70;;;4.57;;
769;SDS011;368;48.698;9.116;2023-08-24T08:02:27;6.10;;;5.60;;
769;SDS011;368;48.698;9.116;2023-08-24T08:04:55;5.57;;;5.07;;
769;SDS011;368;48.698;9.116;2023-08-24T08:07:23;6.60;;;5.50;;
769;SDS011;368;48.698;9.116;2023-08-24T08:09:50;5.20;;;4.80;;
769;SDS011;368;48.698;9.116;2023-08-24T08:12:17;6.07;;;5.47;;
769;SDS011;368;48.698;9.116;2023-08-24T08:14:44;5.30;;;4.90;;
769;SDS011;368;48.698;9.116;2023-08-24T08:17:11;6.10;;;5.33;;
769;SDS011;368;48.698;9.116;2023-08-24T08:19:39;7.50;;;4.77;;
769;SDS011;368;48.698;9.116;2023-08-24T08:22:06;5.67;;;4.80;;
769;SDS011;368;48.698;9.116;2023-08-24T08:24:33;5.03;;;4.50;;
769;SDS011;368;48.698;9.116;2023-08-24T08:27:00;5.27;;;4.60;;
769;SDS011;368;48.698;9.116;2023-08-24T08:29:27;5.10;;;4.60;;
769;SDS011;368;48.698;9.116;2023-08-24T08:31:54;5.50;;;5.00;;
769;SDS011;368;48.698;9.116;2023-08-24T08:34:21;5.70;;;5.20;;
769;SDS011;368;48.698;9.116;2023-08-24T08:36:50;4.70;;;4.23;;
769;SDS011;368;48.698;9.116;2023-08-24T08:39:16;5.83;;;5.07;;
769;SDS011;368;48.698;9.116;2023-08-24T08:41:44;6.00;;;4.40;;
769;SDS011;368;48.698;9.116;2023-08-24T08:44:12;5.67;;;5.23;;
769;SDS011;368;48.698;9.116;2023-08-24T08:46:40;4.67;;;4.10;;
769;SDS011;368;48.698;9.116;2023-08-24T08:49:09;5.13;;;4.63;;
769;SDS011;368;48.698;9.116;2023-08-24T08:51:40;4.97;;;4.10;;
769;SDS011;368;48.698;9.116;2023-08-24T08:54:09;4.70;;;4.27;;
769;SDS011;368;48.698;9.116;2023-08-24T08:56:36;4.60;;;4.00;;
769;SDS011;368;48.698;9.116;2023-08-24T08:59:03;4.47;;;3.97;;
769;SDS011;368;48.698;9.116;2023-08-24T09:01:33;4.17;;;3.77;;
769;SDS011;368;48.698;9.116;2023-08-24T09:04:00;4.67;;;4.27;;
769;SDS011;368;48.698;9.116;2023-08-24T09:06:27;4.20;;;3.90;;
769;SDS011;368;48.698;9.116;2023-08-24T09:08:54;8.30;;;4.30;;
769;SDS011;368;48.698;9.116;2023-08-24T09:11:23;4.77;;;4.37;;
769;SDS011;368;48.698;9.116;2023-08-24T09:13:50;6.63;;;4.00;;
769;SDS011;368;48.698;9.116;2023-08-24T09:16:17;5.07;;;4.67;;
769;SDS011;368;48.698;9.116;2023-08-24T09:18:45;4.07;;;3.77;;
769;SDS011;368;48.698;9.116;2023-08-24T09:21:14;7.10;;;4.20;;
769;SDS011;368;48.698;9.116;2023-08-24T09:23:43;5.37;;;4.17;;
769;SDS011;368;48.698;9.116;2023-08-24T09:26:11;4.50;;;4.07;;
769;SDS011;368;48.698;9.116;2023-08-24T09:28:39;4.17;;;3.77;;
769;SDS011;368;48.698;9.116;2023-08-24T09:31:11;4.40;;;4.10;;
769;SDS011;368;48.698;9.116;2023-08-24T09:33:38;5.10;;;4.40;;
769;SDS011;368;48.698;9.116;2023-08-24T09:36:05;5.00;;;4.13;;
769;SDS011;368;48.698;9.116;2023-08-24T09:38:32;4.93;;;4.10;;
769;SDS011;368;48.698;9.116;2023-08-24T09:41:01;5.53;;;4.00;;
769;SDS011;368;48.698;9.116;2023-08-24T09:43:30;4.80;;;3.87;;
769;SDS011;368;48.698;9.116;2023-08-24T09:45:58;5.53;;;4.93;;
769;SDS011;368;48.698;9.116;2023-08-24T09:48:25;4.40;;;4.03;;
769;SDS011;368;48.698;9.116;2023-08-24T09:50:52;6.50;;;4.30;;
769;SDS011;368;48.698;9.116;2023-08-24T09:53:20;7.90;;;4.13;;
769;SDS011;368;48.698;9.116;2023-08-24T09:55:53;4.80;;;4.40;;
769;SDS011;368;48.698;9.116;2023-08-24T09:58:21;5.47;;;5.07;;
769;SDS011;368;48.698;9.116;2023-08-24T10:00:49;4.67;;;4.27;;
769;SDS011;368;48.698;9.116;2023-08-24T10:03:19;5.07;;;4.67;;
769;SDS011;368;48.698;9.116;2023-08-24T10:05:48;7.70;;;5.20;;
769;SDS011;368;48.698;9.116;2023-08-24T10:08:19;6.10;;;4.63;;
769;SDS011;368;48.698;9.116;2023-08-24T10:10:48;5.03;;;3.97;;
769;SDS011;368;48.698;9.116;2023-08-24T10:13:22;8.43;;;4.47;;
769;SDS011;368;48.698;9.116;2023-08-24T10:15:55;5.67;;;5.10;;
769;SDS011;368;48.698;9.116;2023-08-24T10:18:23;8.10;;;5.30;;
769;SDS011;368;48.698;9.116;2023-08-24T10:20:51;7.50;;;5.37;;
769;SDS011;368;48.698;9.116;2023-08-24T10:23:19;6.10;;;5.03;;
769;SDS011;368;48.698;9.116;2023-08-24T10:25:47;5.30;;;4.90;;
769;SDS011;368;48.698;9.116;2023-08-24T10:28:16;5.40;;;4.90;;
769;SDS011;368;48.698;9.116;2023-08-24T10:30:46;5.57;;;4.60;;
769;SDS011;368;48.698;9.116;2023-08-24T10:33:14;5.67;;;5.10;;
769;SDS011;368;48.698;9.116;2023-08-24T10:35:43;6.20;;;5.00;;
769;SDS011;368;48.698;9.116;2023-08-24T10:38:22;5.03;;;4.60;;
769;SDS011;368;48.698;9.116;2023-08-24T10:40:50;5.10;;;4.70;;
769;SDS011;368;48.698;9.116;2023-08-24T10:43:18;5.87;;;4.57;;
769;SDS011;368;48.698;9.116;2023-08-24T10:45:54;5.43;;;4.67;;
769;SDS011;368;48.698;9.116;2023-08-24T10:48:25;8.13;;;5.50;;
769;SDS011;368;48.698;9.116;2023-08-24T10:53:47;8.40;;;5.90;;
769;SDS011;368;48.698;9.116;2023-08-24T10:56:18;5.30;;;4.90;;
769;SDS011;368;48.698;9.116;2023-08-24T10:58:46;5.60;;;4.93;;
769;SDS011;368;48.698;9.116;2023-08-24T11:01:16;6.27;;;5.67;;
769;SDS011;368;48.698;9.116;2023-08-24T11:03:48;7.03;;;5.60;;
769;SDS011;368;48.698;9.116;2023-08-24T11:06:17;6.10;;;5.50;;
769;SDS011;368;48.698;9.116;2023-08-24T11:08:46;7.43;;;5.07;;
769;SDS011;368;48.698;9.116;2023-08-24T11:11:20;5.47;;;4.97;;
769;SDS011;368;48.698;9.116;2023-08-24T11:16:40;5.27;;;4.87;;
769;SDS011;368;48.698;9.116;2023-08-24T11:19:08;5.63;;;5.13;;
769;SDS011;368;48.698;9.116;2023-08-24T11:21:37;6.40;;;5.90;;
769;SDS011;368;48.698;9.116;2023-08-24T11:24:05;5.93;;;4.83;;
769;SDS011;368;48.698;9.116;2023-08-24T11:26:32;5.33;;;4.93;;
769;SDS011;368;48.698;9.116;2023-08-24T11:28:59;5.80;;;5.30;;
769;SDS011;368;48.698;9.116;2023-08-24T11:31:30;5.97;;;5.40;;
769;SDS011;368;48.698;9.116;2023-08-24T11:33:57;5.97;;;5.57;;
769;SDS011;368;48.698;9.116;2023-08-24T11:36:24;5.00;;;4.60;;
769;SDS011;368;48.698;9.116;2023-08-24T11:38:52;7.23;;;5.43;;
769;SDS011;368;48.698;9.116;2023-08-24T11:41:22;5.67;;;5.17;;
769;SDS011;368;48.698;9.116;2023-08-24T11:43:49;5.57;;;5.17;;
769;SDS011;368;48.698;9.116;2023-08-24T11:46:24;6.83;;;5.07;;
769;SDS011;368;48.698;9.116;2023-08-24T11:48:51;5.37;;;4.83;;
769;SDS011;368;48.698;9.116;2023-08-24T11:51:18;5.40;;;5.00;;
769;SDS011;368;48.698;9.116;2023-08-24T11:53:46;5.47;;;5.07;;
769;SDS011;368;48.698;9.116;2023-08-24T11:56:14;4.83;;;4.43;;
769;SDS011;368;48.698;9.116;2023-08-24T11:58:43;5.33;;;4.93;;
769;SDS011;368;48.698;9.116;2023-08-24T12:01:14;5.50;;;4.97;;
769;SDS011;368;48.698;9.116;2023-08-24T12:03:42;6.27;;;5.77;;
769;SDS011;368;48.698;9.116;2023-08-24T12:06:10;5.63;;;5.13;;
769;SDS011;368;48.698;9.116;2023-08-24T12:08:37;5.63;;;5.20;;
769;SDS011;368;48.698;9.116;2023-08-24T12:11:09;9.73;;;6.23;;
769;SDS011;368;48.698;9.116;2023-08-24T12:13:42;6.60;;;5.97;;
769;SDS011;368;48.698;9.116;2023-08-24T12:16:10;6.73;;;6.13;;
769;SDS011;368;48.698;9.116;2023-08-24T12:18:46;6.10;;;5.60;;
769;SDS011;368;48.698;9.116;2023-08-24T12:21:14;6.10;;;5.43;;
769;SDS011;368;48.698;9.116;2023-08-24T12:23:41;8.47;;;6.10;;
769;SDS011;368;48.698;9.116;2023-08-24T12:26:08;6.30;;;5.70;;
769;SDS011;368;48.698;9.116;2023-08-24T12:28:48;5.97;;;5.47;;
769;SDS011;368;48.698;9.116;2023-08-24T12:31:16;7.73;;;5.40;;
769;SDS011;368;48.698;9.116;2023-08-24T12:33:43;6.07;;;5.47;;
769;SDS011;368;48.698;9.116;2023-08-24T12:36:11;8.60;;;5.70;;
769;SDS011;368;48.698;9.116;2023-08-24T12:38:38;5.60;;;4.87;;
769;SDS011;368;48.698;9.116;2023-08-24T12:41:07;5.80;;;4.90;;
769;SDS011;368;48.698;9.116;2023-08-24T12:43:33;5.30;;;4.80;;
769;SDS011;368;48.698;9.116;2023-08-24T12:46:02;5.50;;;4.80;;
769;SDS011;368;48.698;9.116;2023-08-24T12:48:29;5.57;;;5.07;;
769;SDS011;368;48.698;9.116;2023-08-24T12:50:56;6.10;;;5.07;;
769;SDS011;368;48.698;9.116;2023-08-24T12:53:22;5.27;;;4.77;;
769;SDS011;368;48.698;9.116;2023-08-24T12:55:50;6.70;;;5.73;;
769;SDS011;368;48.698;9.116;2023-08-24T12:58:17;5.80;;;5.03;;
769;SDS011;368;48.698;9.116;2023-08-24T13:00:46;6.30;;;5.23;;
769;SDS011;368;48.698;9.116;2023-08-24T13:03:15;6.23;;;5.30;;
769;SDS011;368;48.698;9.116;2023-08-24T13:05:42;5.90;;;4.83;;
769;SDS011;368;48.698;9.116;2023-08-24T13:08:08;6.33;;;4.90;;
769;SDS011;368;48.698;9.116;2023-08-24T13:10:35;6.13;;;4.40;;
769;SDS011;368;48.698;9.116;2023-08-24T13:13:02;8.93;;;5.03;;
769;SDS011;368;48.698;9.116;2023-08-24T13:15:29;6.07;;;4.87;;
769;SDS011;368;48.698;9.116;2023-08-24T13:17:56;5.10;;;4.60;;
769;SDS011;368;48.698;9.116;2023-08-24T13:20:25;5.37;;;4.83;;
769;SDS011;368;48.698;9.116;2023-08-24T13:22:52;8.00;;;4.83;;
769;SDS011;368;48.698;9.116;2023-08-24T13:25:19;10.97;;;5.07;;
769;SDS011;368;48.698;9.116;2023-08-24T13:27:46;8.77;;;5.40;;
769;SDS011;368;48.698;9.116;2023-08-24T13:30:13;7.73;;;4.70;;
769;SDS011;368;48.698;9.116;2023-08-24T13:32:39;5.73;;;5.13;;
769;SDS011;368;48.698;9.116;2023-08-24T13:35:07;6.40;;;4.60;;
769;SDS011;368;48.698;9.116;2023-08-24T13:37:36;9.57;;;4.20;;
769;SDS011;368;48.698;9.116;2023-08-24T13:40:03;5.80;;;4.33;;
769;SDS011;368;48.698;9.116;2023-08-24T13:42:32;7.37;;;5.10;;
769;SDS011;368;48.698;9.116;2023-08-24T13:44:59;9.73;;;4.80;;
769;SDS011;368;48.698;9.116;2023-08-24T13:47:26;5.30;;;3.83;;
769;SDS011;368;48.698;9.116;2023-08-24T13:49:53;8.70;;;5.40;;
769;SDS011;368;48.698;9.116;2023-08-24T13:52:20;6.97;;;4.97;;
769;SDS011;368;48.698;9.116;2023-08-24T13:54:48;6.27;;;4.70;;
769;SDS011;368;48.698;9.116;2023-08-24T13:57:15;7.00;;;5.00;;
769;SDS011;368;48.698;9.116;2023-08-24T13:59:42;10.73;;;4.80;;
769;SDS011;368;48.698;9.116;2023-08-24T14:02:09;9.10;;;5.50;;
769;SDS011;368;48.698;9.116;2023-08-24T14:04:36;7.43;;;4.70;;
769;SDS011;368;48.698;9.116;2023-08-24T14:07:03;7.77;;;6.63;;
769;SDS011;368;48.698;9.116;2023-08-24T14:09:30;6.13;;;4.60;;
769;SDS011;368;48.698;9.116;2023-08-24T14:11:59;5.30;;;4.73;;
769;SDS011;368;48.698;9.116;2023-08-24T14:14:26;8.50;;;4.77;;
769;SDS011;368;48.698;9.116;2023-08-24T14:16:56;7.60;;;5.50;;
769;SDS011;368;48.698;9.116;2023-08-24T14:19:23;7.97;;;5.47;;
769;SDS011;368;48.698;9.116;2023-08-24T14:21:50;5.53;;;4.80;;
769;SDS011;368;48.698;9.116;2023-08-24T14:24:17;9.13;;;5.37;;
769;SDS011;368;48.698;9.116;2023-08-24T14:26:44;7.80;;;6.10;;
769;SDS011;368;48.698;9.116;2023-08-24T14:29:13;7.10;;;5.73;;
769;SDS011;368;48.698;9.116;2023-08-24T14:31:40;7.07;;;5.40;;
769;SDS011;368;48.698;9.116;2023-08-24T14:34:07;7.83;;;5.37;;
769;SDS011;368;48.698;9.116;2023-08-24T14:36:34;12.63;;;8.57;;
769;SDS011;368;48.698;9.116;2023-08-24T14:39:02;11.00;;;5.97;;
769;SDS011;368;48.698;9.116;2023-08-24T14:41:29;26.07;;;15.87;;
769;SDS011;368;48.698;9.116;2023-08-24T14:43:56;16.27;;;6.10;;
769;SDS011;368;48.698;9.116;2023-08-24T14:46:24;48.60;;;30.43;;
769;SDS011;368;48.698;9.116;2023-08-24T14:48:51;9.53;;;5.53;;
769;SDS011;368;48.698;9.116;2023-08-24T14:51:18;7.30;;;5.30;;
769;SDS011;368;48.698;9.116;2023-08-24T14:53:45;10.37;;;5.70;;
769;SDS011;368;48.698;9.116;2023-08-24T14:56:12;7.53;;;5.37;;
769;SDS011;368;48.698;9.116;2023-08-24T14:58:39;11.40;;;8.30;;
769;SDS011;368;48.698;9.116;2023-08-24T15:01:06;11.93;;;5.53;;
769;SDS011;368;48.698;9.116;2023-08-24T15:06:04;11.17;;;6.70;;
769;SDS011;368;48.698;9.116;2023-08-24T15:08:33;7.87;;;6.90;;
769;SDS011;368;48.698;9.116;2023-08-24T15:11:01;8.20;;;7.40;;
769;SDS011;368;48.698;9.116;2023-08-24T15:13:29;8.30;;;7.50;;
769;SDS011;368;48.698;9.116;2023-08-24T15:15:57;7.60;;;6.80;;
769;SDS011;368;48.698;9.116;2023-08-24T15:18:24;7.30;;;6.70;;
769;SDS011;368;48.698;9.116;2023-08-24T15:20:53;8.47;;;7.77;;
769;SDS011;368;48.698;9.116;2023-08-24T15:23:20;8.40;;;6.80;;
769;SDS011;368;48.698;9.116;2023-08-24T15:25:48;7.13;;;6.17;;
769;SDS011;368;48.698;9.116;2023-08-24T15:28:15;6.20;;;5.70;;
769;SDS011;368;48.698;9.116;2023-08-24T15:30:42;5.70;;;5.13;;
769;SDS011;368;48.698;9.116;2023-08-24T15:33:09;5.80;;;5.17;;
769;SDS011;368;48.698;9.116;2023-08-24T15:35:36;5.43;;;4.23;;
769;SDS011;368;48.698;9.116;2023-08-24T15:38:04;4.10;;;3.57;;
769;SDS011;368;48.698;9.116;2023-08-24T15:40:31;3.83;;;3.47;;
769;SDS011;368;48.698;9.116;2023-08-24T15:42:59;4.50;;;3.60;;
769;SDS011;368;48.698;9.116;2023-08-24T15:45:27;3.93;;;3.63;;
769;SDS011;368;48.698;9.116;2023-08-24T15:47:55;3.87;;;3.37;;
769;SDS011;368;48.698;9.116;2023-08-24T15:50:22;4.57;;;3.40;;
769;SDS011;368;48.698;9.116;2023-08-24T15:52:49;3.60;;;3.30;;
769;SDS011;368;48.698;9.116;2023-08-24T15:55:18;5.40;;;3.20;;
769;SDS011;368;48.698;9.116;2023-08-24T15:57:45;3.57;;;3.27;;